createdAt,value
2019-04-26T00:01:41.782Z,4.20
2019-04-26T00:04:12.174Z,4.43
2019-04-26T00:06:42.688Z,5.17
2019-04-26T00:09:33.551Z,4.93
2019-04-26T00:12:08.076Z,5.00
2019-04-26T00:14:51.558Z,5.83
2019-04-26T00:17:23.432Z,5.03
2019-04-26T00:19:54.035Z,6.37
2019-04-26T00:22:24.241Z,5.33
2019-04-26T00:24:54.451Z,6.43
2019-04-26T00:27:24.363Z,7.17
2019-04-26T00:29:54.375Z,6.67
2019-04-26T00:32:24.879Z,7.37
2019-04-26T00:34:54.907Z,6.37
2019-04-26T00:37:24.806Z,5.77
2019-04-26T00:39:54.817Z,4.30
2019-04-26T00:42:25.405Z,3.13
2019-04-26T00:44:56.117Z,4.40
2019-04-26T00:47:29.276Z,3.10
2019-04-26T00:50:00.569Z,3.77
2019-04-26T00:52:32.132Z,2.20
2019-04-26T00:55:03.955Z,2.70
2019-04-26T00:57:35.625Z,3.30
2019-04-26T01:00:08.720Z,3.67
2019-04-26T01:02:49.405Z,3.60
2019-04-26T01:05:19.315Z,4.73
2019-04-26T01:07:50.799Z,5.10
2019-04-26T01:10:21.606Z,4.73
2019-04-26T01:12:51.709Z,5.00
2019-04-26T01:15:23.180Z,4.43
2019-04-26T01:17:53.301Z,4.90
2019-04-26T01:20:27.301Z,4.30
2019-04-26T01:23:01.685Z,6.07
2019-04-26T01:26:02.172Z,4.90
2019-04-26T01:28:39.251Z,4.63
2019-04-26T01:31:10.654Z,4.57
2019-04-26T01:33:41.642Z,5.10
2019-04-26T01:36:13.538Z,4.93
2019-04-26T01:38:47.964Z,6.13
2019-04-26T01:41:29.668Z,7.10
2019-04-26T01:44:14.006Z,5.47
2019-04-26T01:46:49.249Z,4.37
2019-04-26T01:49:24.185Z,4.60
2019-04-26T01:52:07.364Z,5.30
2019-04-26T01:54:41.700Z,4.20
2019-04-26T01:57:13.582Z,3.63
2019-04-26T01:59:49.294Z,3.57
2019-04-26T02:02:27.824Z,3.83
2019-04-26T02:05:06.230Z,3.73
2019-04-26T02:07:39.795Z,5.03
2019-04-26T02:10:14.212Z,4.17
2019-04-26T02:12:48.746Z,4.60
2019-04-26T02:15:24.464Z,3.50
2019-04-26T02:17:58.433Z,3.10
2019-04-26T02:20:55.153Z,6.03
2019-04-26T02:23:27.866Z,4.23
2019-04-26T02:26:00.092Z,4.10
2019-04-26T02:28:30.381Z,4.90
2019-04-26T02:31:01.309Z,4.97
2019-04-26T02:33:33.297Z,3.70
2019-04-26T02:36:03.385Z,3.70
2019-04-26T02:38:34.670Z,4.37
2019-04-26T02:41:05.475Z,2.70
2019-04-26T02:43:37.451Z,2.90
2019-04-26T02:46:10.910Z,3.87
2019-04-26T02:49:01.856Z,3.93
2019-04-26T02:51:36.928Z,3.30
2019-04-26T02:54:31.567Z,5.43
2019-04-26T02:57:03.445Z,4.67
2019-04-26T02:59:38.730Z,3.43
2019-04-26T03:02:13.890Z,2.70
2019-04-26T03:04:48.032Z,4.90
2019-04-26T03:07:32.091Z,5.43
2019-04-26T03:10:05.247Z,3.50
2019-04-26T03:12:39.642Z,3.53
2019-04-26T03:15:33.439Z,3.73
2019-04-26T03:18:17.369Z,4.27
2019-04-26T03:20:51.567Z,4.93
2019-04-26T03:23:55.215Z,2.90
2019-04-26T03:26:41.561Z,6.40
2019-04-26T03:29:36.993Z,5.57
2019-04-26T03:32:45.693Z,4.93
2019-04-26T03:35:52.505Z,6.17
2019-04-26T03:38:41.428Z,4.60
2019-04-26T03:41:29.844Z,3.20
2019-04-26T03:44:22.173Z,4.63
2019-04-26T03:47:02.149Z,3.77
2019-04-26T03:50:09.285Z,5.87
2019-04-26T03:53:01.605Z,3.63
2019-04-26T03:55:38.266Z,2.30
2019-04-26T03:58:26.905Z,4.00
2019-04-26T04:01:02.515Z,3.40
2019-04-26T04:03:46.113Z,2.90
2019-04-26T04:06:22.002Z,3.37
2019-04-26T04:09:08.998Z,3.37
2019-04-26T04:12:10.277Z,2.70
2019-04-26T04:14:51.737Z,3.10
2019-04-26T04:17:50.171Z,2.80
2019-04-26T04:20:39.142Z,2.43
2019-04-26T04:23:46.718Z,3.37
2019-04-26T04:26:24.075Z,6.40
2019-04-26T04:29:14.820Z,3.67
2019-04-26T04:32:04.414Z,3.03
2019-04-26T04:34:48.220Z,3.93
2019-04-26T04:37:23.284Z,5.30
2019-04-26T04:40:08.333Z,4.03
2019-04-26T04:42:55.882Z,3.50
2019-04-26T04:45:58.870Z,4.27
2019-04-26T04:48:58.684Z,5.63
2019-04-26T04:51:42.892Z,4.23
2019-04-26T04:54:43.240Z,2.70
2019-04-26T04:57:38.025Z,3.60
2019-04-26T05:00:43.083Z,2.13
2019-04-26T05:03:36.834Z,3.43
2019-04-26T05:06:30.797Z,7.60
2019-04-26T05:09:10.380Z,4.27
2019-04-26T05:12:14.601Z,5.47
2019-04-26T05:15:13.612Z,5.20
2019-04-26T05:17:56.701Z,5.93
2019-04-26T05:20:39.685Z,4.70
2019-04-26T05:23:39.290Z,3.60
2019-04-26T05:26:46.118Z,8.37
2019-04-26T05:29:36.822Z,8.03
2019-04-26T05:32:23.150Z,6.10
2019-04-26T05:35:15.481Z,5.23
2019-04-26T05:38:18.008Z,3.60
2019-04-26T05:40:53.494Z,3.63
2019-04-26T05:43:43.610Z,4.03
2019-04-26T05:47:06.560Z,2.83
2019-04-26T05:50:10.871Z,2.77
2019-04-26T05:53:09.260Z,4.13
2019-04-26T05:56:00.003Z,4.50
2019-04-26T05:58:51.185Z,4.93
2019-04-26T06:01:35.712Z,2.90
2019-04-26T06:04:32.564Z,5.40
2019-04-26T06:07:35.405Z,3.40
2019-04-26T06:10:26.060Z,3.97
2019-04-26T06:13:19.863Z,4.20
2019-04-26T06:16:14.845Z,3.50
2019-04-26T06:19:11.887Z,6.43
2019-04-26T06:21:52.379Z,2.90
2019-04-26T06:24:39.044Z,3.20
2019-04-26T06:27:31.668Z,3.73
2019-04-26T06:30:49.747Z,3.10
2019-04-26T06:33:36.084Z,4.00
2019-04-26T06:36:11.187Z,5.37
2019-04-26T06:39:09.720Z,3.17
2019-04-26T06:42:03.227Z,3.00
2019-04-26T06:45:10.595Z,3.20
2019-04-26T06:47:56.878Z,6.07
2019-04-26T06:50:49.448Z,4.83
2019-04-26T06:53:35.616Z,9.30
2019-04-26T06:56:49.343Z,15.13
2019-04-26T06:59:36.586Z,6.30
2019-04-26T07:02:20.624Z,7.63
2019-04-26T07:05:10.100Z,4.50
2019-04-26T07:08:09.797Z,5.97
2019-04-26T07:11:19.236Z,3.47
2019-04-26T07:14:09.983Z,2.97
2019-04-26T07:17:12.211Z,4.07
2019-04-26T07:20:04.521Z,4.80
2019-04-26T07:23:17.341Z,5.97
2019-04-26T07:26:01.782Z,2.57
2019-04-26T07:28:56.193Z,4.90
2019-04-26T07:31:52.608Z,4.73
2019-04-26T07:34:43.602Z,2.47
2019-04-26T07:37:36.811Z,5.27
2019-04-26T07:40:40.738Z,2.60
2019-04-26T07:43:42.210Z,4.97
2019-04-26T07:46:49.574Z,2.37
2019-04-26T07:49:59.844Z,5.40
2019-04-26T07:53:04.986Z,1.70
2019-04-26T07:56:05.323Z,3.53
2019-04-26T07:59:12.910Z,3.87
2019-04-26T08:02:26.016Z,3.97
2019-04-26T08:05:26.207Z,4.97
2019-04-26T08:08:04.216Z,1.83
2019-04-26T08:10:38.872Z,4.03
2019-04-26T08:13:16.198Z,2.10
2019-04-26T08:16:04.867Z,4.90
2019-04-26T08:18:43.051Z,2.83
2019-04-26T08:21:24.675Z,2.63
2019-04-26T08:24:00.487Z,3.67
2019-04-26T08:26:35.238Z,1.87
2019-04-26T08:29:08.461Z,3.67
2019-04-26T08:31:41.728Z,1.77
2019-04-26T08:34:21.159Z,2.27
2019-04-26T08:37:10.512Z,2.47
2019-04-26T08:39:45.543Z,2.50
2019-04-26T08:42:20.826Z,1.67
2019-04-26T08:44:58.678Z,3.63
2019-04-26T08:47:31.741Z,1.23
2019-04-26T08:50:09.906Z,2.00
2019-04-26T08:52:39.725Z,1.87
2019-04-26T08:55:13.081Z,1.73
2019-04-26T08:57:47.200Z,0.80
2019-04-26T09:00:34.629Z,2.20
2019-04-26T09:03:25.087Z,2.73
2019-04-26T09:06:02.671Z,1.47
2019-04-26T09:08:39.222Z,1.00
2019-04-26T09:11:25.370Z,1.93
2019-04-26T09:13:50.028Z,2.30
2019-04-26T09:16:22.108Z,3.20
2019-04-26T09:18:55.124Z,1.73
2019-04-26T09:21:28.991Z,0.97
2019-04-26T09:24:08.426Z,1.80
2019-04-26T09:26:46.710Z,0.70
2019-04-26T09:29:16.422Z,0.90
2019-04-26T09:31:54.515Z,0.73
2019-04-26T09:34:30.012Z,1.30
2019-04-26T09:37:00.025Z,0.60
2019-04-26T09:39:30.035Z,0.73
2019-04-26T09:42:06.001Z,1.00
2019-04-26T09:44:56.947Z,1.33
2019-04-26T09:47:31.821Z,0.90
2019-04-26T09:50:11.226Z,1.73
2019-04-26T09:52:51.406Z,1.67
2019-04-26T09:55:34.527Z,1.70
2019-04-26T09:57:56.806Z,2.03
2019-04-26T10:00:30.398Z,1.53
2019-04-26T10:03:00.517Z,1.37
2019-04-26T10:05:30.517Z,0.70
2019-04-26T10:08:00.718Z,2.27
2019-04-26T10:10:35.368Z,1.30
2019-04-26T10:13:15.301Z,0.93
2019-04-26T10:15:52.479Z,1.33
2019-04-26T10:18:24.521Z,1.57
2019-04-26T10:20:55.015Z,1.70
2019-04-26T10:23:25.172Z,0.57
2019-04-26T10:25:55.195Z,0.80
2019-04-26T10:28:25.507Z,2.33
2019-04-26T10:30:55.499Z,0.90
2019-04-26T10:33:25.904Z,1.60
2019-04-26T10:35:56.780Z,1.47
2019-04-26T10:38:27.892Z,0.80
2019-04-26T10:40:57.904Z,1.47
2019-04-26T10:43:29.522Z,1.50
2019-04-26T10:45:59.893Z,1.97
2019-04-26T10:48:29.910Z,1.27
2019-04-26T10:51:03.280Z,1.50
2019-04-26T10:53:36.223Z,1.00
2019-04-26T10:56:14.785Z,2.70
2019-04-26T10:58:52.663Z,2.20
2019-04-26T11:01:22.673Z,2.67
2019-04-26T11:03:52.881Z,1.47
2019-04-26T11:06:24.144Z,2.20
2019-04-26T11:08:54.576Z,1.33
2019-04-26T11:11:24.587Z,0.93
2019-04-26T11:13:57.413Z,2.13
2019-04-26T11:16:27.168Z,2.57
2019-04-26T11:19:00.869Z,2.17
2019-04-26T11:21:28.863Z,15.93
2019-04-26T11:23:58.874Z,5.33
2019-04-26T11:26:31.147Z,1.00
2019-04-26T11:29:02.531Z,2.93
2019-04-26T11:31:32.545Z,6.80
2019-04-26T11:34:05.326Z,4.53
2019-04-26T11:36:37.672Z,0.80
2019-04-26T11:39:11.619Z,2.83
2019-04-26T11:41:42.718Z,2.83
2019-04-26T11:44:13.253Z,0.90
2019-04-26T11:46:45.374Z,5.00
2019-04-26T11:49:17.372Z,1.97
2019-04-26T11:51:50.433Z,13.07
2019-04-26T11:54:22.316Z,1.97
2019-04-26T11:56:52.529Z,1.03
2019-04-26T11:59:22.645Z,3.03
2019-04-26T12:01:52.936Z,2.77
2019-04-26T12:04:24.569Z,1.57
2019-04-26T12:07:05.939Z,1.80
2019-04-26T12:09:39.393Z,1.50
2019-04-26T12:12:13.184Z,1.23
2019-04-26T12:14:45.018Z,0.60
2019-04-26T12:17:16.404Z,2.00
2019-04-26T12:19:48.198Z,2.80
2019-04-26T12:22:21.153Z,1.70
2019-04-26T12:24:51.452Z,2.27
2019-04-26T12:27:22.103Z,2.47
2019-04-26T12:29:52.755Z,1.70
2019-04-26T12:32:23.238Z,2.67
2019-04-26T12:34:54.743Z,2.37
2019-04-26T12:37:27.312Z,2.90
2019-04-26T12:39:58.594Z,1.83
2019-04-26T12:42:29.797Z,4.33
2019-04-26T12:45:18.364Z,3.03
2019-04-26T12:47:52.425Z,1.83
2019-04-26T12:50:24.109Z,2.77
2019-04-26T12:52:56.190Z,2.80
2019-04-26T12:55:29.440Z,2.43
2019-04-26T12:58:01.321Z,2.17
2019-04-26T13:00:37.581Z,2.43
2019-04-26T13:03:20.125Z,2.80
2019-04-26T13:05:44.369Z,3.07
2019-04-26T13:08:18.929Z,3.47
2019-04-26T13:10:50.450Z,3.13
2019-04-26T13:13:29.161Z,2.70
2019-04-26T13:16:09.357Z,3.20
2019-04-26T13:18:45.306Z,3.23
2019-04-26T13:21:14.778Z,2.13
2019-04-26T13:23:49.507Z,5.07
2019-04-26T13:26:22.984Z,3.53
2019-04-26T13:28:57.142Z,4.30
2019-04-26T13:31:31.606Z,5.07
2019-04-26T13:34:07.053Z,4.33
2019-04-26T13:36:38.378Z,4.60
2019-04-26T13:39:17.466Z,7.10
2019-04-26T13:41:46.426Z,4.30
2019-04-26T13:44:18.011Z,2.90
2019-04-26T13:46:59.030Z,6.40
2019-04-26T13:49:30.513Z,4.60
2019-04-26T13:52:00.430Z,3.30
2019-04-26T13:54:30.440Z,3.77
2019-04-26T13:57:00.353Z,5.20
2019-04-26T13:59:31.742Z,5.63
2019-04-26T14:02:11.308Z,3.80
2019-04-26T14:04:37.066Z,4.53
2019-04-26T14:07:05.634Z,4.20
2019-04-26T14:09:35.718Z,5.07
2019-04-26T14:12:17.819Z,5.43
2019-04-26T14:14:37.708Z,8.10
2019-04-26T14:17:07.919Z,4.30
2019-04-26T14:19:38.424Z,4.53
2019-04-26T14:22:08.825Z,7.37
2019-04-26T14:24:46.111Z,5.27
2019-04-26T14:27:17.489Z,4.03
2019-04-26T14:29:47.709Z,3.37
2019-04-26T14:32:17.623Z,3.60
2019-04-26T14:34:47.537Z,3.37
2019-04-26T14:37:17.769Z,3.17
2019-04-26T14:39:50.658Z,3.80
2019-04-26T14:42:33.147Z,4.67
2019-04-26T14:44:51.119Z,4.73
2019-04-26T14:47:21.034Z,3.57
2019-04-26T14:49:53.365Z,4.93
2019-04-26T14:52:24.049Z,5.13
2019-04-26T14:54:54.804Z,4.90
2019-04-26T14:57:31.013Z,10.00
2019-04-26T14:59:58.169Z,4.63
2019-04-26T15:02:33.099Z,7.27
2019-04-26T15:05:22.209Z,5.97
2019-04-26T15:07:53.820Z,4.97
2019-04-26T15:10:25.545Z,4.07
2019-04-26T15:13:11.514Z,6.43
2019-04-26T15:15:32.125Z,6.70
2019-04-26T15:18:00.412Z,6.07
2019-04-26T15:20:32.618Z,4.60
2019-04-26T15:23:03.162Z,4.97
2019-04-26T15:25:33.702Z,4.70
2019-04-26T15:28:06.814Z,3.33
2019-04-26T15:30:43.192Z,3.80
2019-04-26T15:33:08.849Z,6.43
2019-04-26T15:35:42.062Z,5.17
2019-04-26T15:38:12.584Z,7.57
2019-04-26T15:40:56.455Z,5.83
2019-04-26T15:43:33.741Z,4.77
2019-04-26T15:46:17.574Z,8.33
2019-04-26T15:49:03.089Z,4.73
2019-04-26T15:51:34.351Z,4.67
2019-04-26T15:54:04.559Z,6.60
2019-04-26T15:56:34.472Z,4.40
2019-04-26T15:59:04.975Z,7.87
2019-04-26T16:01:34.887Z,8.10
2019-04-26T16:04:06.562Z,6.83
2019-04-26T16:06:37.352Z,9.67
2019-04-26T16:09:13.901Z,8.93
2019-04-26T16:11:49.417Z,4.97
2019-04-26T16:14:14.187Z,7.50
2019-04-26T16:16:44.101Z,5.67
2019-04-26T16:19:14.901Z,9.53
2019-04-26T16:21:48.238Z,5.90
2019-04-26T16:24:16.496Z,11.13
2019-04-26T16:26:50.993Z,10.60
2019-04-26T16:29:26.351Z,7.70
2019-04-26T16:32:00.689Z,10.60
2019-04-26T16:34:32.478Z,9.00
2019-04-26T16:37:03.122Z,10.90
2019-04-26T16:39:38.908Z,7.93
2019-04-26T16:42:07.599Z,9.47
2019-04-26T16:44:37.136Z,8.43
2019-04-26T16:47:07.147Z,8.97
2019-04-26T16:49:41.914Z,10.27
2019-04-26T16:52:08.944Z,7.53
2019-04-26T16:54:39.346Z,9.77
2019-04-26T16:57:11.416Z,9.63
2019-04-26T16:59:48.966Z,7.53
2019-04-26T17:02:15.908Z,7.50
2019-04-26T17:04:44.600Z,7.13
2019-04-26T17:07:21.912Z,5.77
2019-04-26T17:10:03.104Z,7.17
2019-04-26T17:12:18.179Z,7.50
2019-04-26T17:14:49.080Z,9.17
2019-04-26T17:17:19.183Z,8.17
2019-04-26T17:19:49.426Z,8.77
2019-04-26T17:22:23.925Z,7.93
2019-04-26T17:24:55.606Z,9.37
2019-04-26T17:27:26.798Z,10.60
2019-04-26T17:29:56.711Z,9.33
2019-04-26T17:32:26.626Z,12.60
2019-04-26T17:34:59.492Z,13.50
2019-04-26T17:37:28.221Z,11.23
2019-04-26T17:39:58.527Z,9.00
2019-04-26T17:42:29.803Z,9.90
2019-04-26T17:45:04.005Z,8.73
2019-04-26T17:47:35.208Z,8.20
2019-04-26T17:50:06.492Z,14.23
2019-04-26T17:52:37.756Z,10.90
2019-04-26T17:55:11.903Z,9.20
2019-04-26T17:57:43.535Z,8.40
2019-04-26T18:00:15.891Z,10.43
2019-04-26T18:02:48.155Z,9.60
2019-04-26T18:05:19.055Z,10.40
2019-04-26T18:07:56.270Z,11.13
2019-04-26T18:10:21.513Z,9.37
2019-04-26T18:12:51.585Z,7.97
2019-04-26T18:15:21.598Z,10.60
2019-04-26T18:17:59.084Z,7.93
2019-04-26T18:20:30.665Z,12.63
2019-04-26T18:23:03.487Z,10.73
2019-04-26T18:25:34.438Z,11.07
2019-04-26T18:28:04.776Z,10.03
2019-04-26T18:30:34.688Z,11.33
2019-04-26T18:33:05.344Z,9.70
2019-04-26T18:35:35.263Z,8.87
2019-04-26T18:38:08.518Z,11.07
2019-04-26T18:40:57.144Z,11.87
2019-04-26T18:43:12.469Z,10.03
2019-04-26T18:45:42.803Z,10.93
2019-04-26T18:48:13.819Z,12.27
2019-04-26T18:50:46.028Z,11.47
2019-04-26T18:53:19.662Z,11.40
2019-04-26T18:55:51.079Z,15.00
2019-04-26T18:58:21.096Z,12.13
2019-04-26T19:00:53.006Z,11.43
2019-04-26T19:03:26.184Z,12.23
2019-04-26T19:05:58.443Z,11.60
2019-04-26T19:08:28.714Z,11.50
2019-04-26T19:11:01.349Z,12.13
2019-04-26T19:13:36.691Z,11.47
2019-04-26T19:16:24.202Z,8.40
2019-04-26T19:19:15.351Z,9.37
2019-04-26T19:21:50.633Z,13.30
2019-04-26T19:24:21.435Z,11.30
2019-04-26T19:26:51.877Z,15.43
2019-04-26T19:29:27.036Z,10.33
2019-04-26T19:31:56.616Z,12.65
2019-04-26T19:34:26.102Z,11.93
2019-04-26T19:36:59.778Z,11.47
2019-04-26T19:39:33.268Z,11.07
2019-04-26T19:42:02.495Z,12.47
2019-04-26T19:44:32.768Z,16.73
2019-04-26T19:47:19.591Z,13.60
2019-04-26T19:50:11.243Z,12.20
2019-04-26T19:52:48.319Z,12.30
2019-04-26T19:55:25.604Z,10.33
2019-04-26T19:57:56.979Z,10.87
2019-04-26T20:00:27.003Z,14.27
2019-04-26T20:02:57.414Z,12.03
2019-04-26T20:05:27.665Z,11.80
2019-04-26T20:07:58.434Z,13.40
2019-04-26T20:10:29.412Z,10.40
2019-04-26T20:12:59.325Z,12.23
2019-04-26T20:15:31.651Z,14.70
2019-04-26T20:18:03.816Z,16.07
2019-04-26T20:20:36.288Z,13.77
2019-04-26T20:23:07.789Z,14.53
2019-04-26T20:25:37.059Z,13.00
2019-04-26T20:28:07.260Z,11.20
2019-04-26T20:30:57.895Z,10.70
2019-04-26T20:33:30.634Z,10.60
2019-04-26T20:36:03.414Z,13.50
2019-04-26T20:38:35.901Z,13.00
2019-04-26T20:41:01.938Z,14.60
2019-04-26T20:43:36.880Z,15.50
2019-04-26T20:46:14.033Z,18.53
2019-04-26T20:48:37.769Z,13.50
2019-04-26T20:51:10.917Z,12.67
2019-04-26T20:53:41.769Z,12.87
2019-04-26T20:56:16.643Z,12.03
2019-04-26T20:58:47.032Z,11.30
2019-04-26T21:01:16.306Z,11.80
2019-04-26T21:03:47.114Z,12.07
2019-04-26T21:06:17.151Z,15.17
2019-04-26T21:08:47.064Z,13.60
2019-04-26T21:11:17.351Z,13.40
2019-04-26T21:13:47.620Z,15.00
2019-04-26T21:16:17.696Z,10.47
2019-04-26T21:18:47.648Z,8.23
2019-04-26T21:21:17.712Z,11.20
2019-04-26T21:23:49.103Z,16.13
2019-04-26T21:26:36.185Z,11.97
2019-04-26T21:29:20.288Z,13.27
2019-04-26T21:31:50.441Z,8.67
2019-04-26T21:34:24.739Z,17.43
2019-04-26T21:37:17.281Z,12.70
2019-04-26T21:39:54.653Z,15.27
2019-04-26T21:42:25.800Z,12.70
2019-04-26T21:44:55.943Z,15.40
2019-04-26T21:47:27.545Z,15.10
2019-04-26T21:50:00.289Z,14.20
2019-04-26T21:52:29.616Z,13.50
2019-04-26T21:54:59.809Z,11.27
2019-04-26T21:57:31.764Z,16.43
2019-04-26T22:00:01.620Z,10.63
2019-04-26T22:02:36.108Z,13.87
2019-04-26T22:05:08.094Z,12.27
2019-04-26T22:07:39.485Z,13.33
2019-04-26T22:10:14.475Z,9.47
2019-04-26T22:12:45.098Z,13.20
2019-04-26T22:15:35.802Z,11.87
2019-04-26T22:18:16.471Z,13.43
2019-04-26T22:20:50.899Z,10.03
2019-04-26T22:23:21.306Z,11.40
2019-04-26T22:25:54.297Z,13.27
2019-04-26T22:28:26.865Z,14.30
2019-04-26T22:30:59.474Z,11.43
2019-04-26T22:33:30.958Z,12.90
2019-04-26T22:36:00.467Z,13.87
2019-04-26T22:38:30.381Z,14.57
2019-04-26T22:41:00.569Z,11.77
2019-04-26T22:43:44.408Z,15.00
2019-04-26T22:46:44.494Z,9.13
2019-04-26T22:49:05.753Z,13.33
2019-04-26T22:51:40.054Z,20.00
2019-04-26T22:54:10.067Z,14.07
2019-04-26T22:56:39.985Z,14.60
2019-04-26T22:59:09.894Z,15.13
2019-04-26T23:01:44.793Z,16.27
2019-04-26T23:04:16.362Z,12.57
2019-04-26T23:06:46.850Z,14.20
2019-04-26T23:09:17.459Z,17.57
2019-04-26T23:11:49.488Z,14.13
2019-04-26T23:14:20.974Z,13.17
2019-04-26T23:17:08.563Z,13.90
2019-04-26T23:19:43.663Z,12.77
2019-04-26T23:22:14.407Z,12.73
2019-04-26T23:24:44.901Z,15.93
2019-04-26T23:27:20.522Z,11.23
2019-04-26T23:29:49.935Z,12.10
2019-04-26T23:32:20.105Z,14.40
2019-04-26T23:34:50.756Z,13.57
2019-04-26T23:37:24.259Z,13.57
2019-04-26T23:39:53.635Z,17.10
2019-04-26T23:42:25.111Z,13.10
2019-04-26T23:44:55.128Z,17.00
2019-04-26T23:47:25.655Z,13.00
2019-04-26T23:49:57.041Z,11.83
2019-04-26T23:52:27.322Z,14.80
2019-04-26T23:54:57.243Z,13.10
2019-04-26T23:57:30.962Z,14.10
